sensor_id;sensor_type;location;lat;lon;timestamp;P1;durP1;ratioP1;P2;durP2;ratioP2
3267;SDS011;1646;52.450;13.326;2023-03-01T00:01:38;24.80;;;10.67;;
3267;SDS011;1646;52.450;13.326;2023-03-01T00:06:37;26.13;;;10.30;;
3267;SDS011;1646;52.450;13.326;2023-03-01T00:11:35;21.40;;;9.93;;
3267;SDS011;1646;52.450;13.326;2023-03-01T00:16:36;21.37;;;10.40;;
3267;SDS011;1646;52.450;13.326;2023-03-01T00:21:37;25.47;;;10.30;;
3267;SDS011;1646;52.450;13.326;2023-03-01T00:26:35;28.00;;;11.37;;
3267;SDS011;1646;52.450;13.326;2023-03-01T00:31:35;20.40;;;10.10;;
3267;SDS011;1646;52.450;13.326;2023-03-01T00:36:35;25.40;;;10.63;;
3267;SDS011;1646;52.450;13.326;2023-03-01T00:41:34;19.63;;;9.40;;
3267;SDS011;1646;52.450;13.326;2023-03-01T00:46:32;23.30;;;10.67;;
3267;SDS011;1646;52.450;13.326;2023-03-01T00:51:32;24.47;;;11.13;;
3267;SDS011;1646;52.450;13.326;2023-03-01T00:56:30;22.33;;;10.80;;
3267;SDS011;1646;52.450;13.326;2023-03-01T01:01:30;24.50;;;11.70;;
3267;SDS011;1646;52.450;13.326;2023-03-01T01:06:29;24.80;;;11.00;;
3267;SDS011;1646;52.450;13.326;2023-03-01T01:11:30;18.87;;;9.77;;
3267;SDS011;1646;52.450;13.326;2023-03-01T01:16:29;24.90;;;10.50;;
3267;SDS011;1646;52.450;13.326;2023-03-01T01:21:28;25.00;;;10.77;;
3267;SDS011;1646;52.450;13.326;2023-03-01T01:26:28;29.70;;;11.50;;
3267;SDS011;1646;52.450;13.326;2023-03-01T01:31:29;23.97;;;10.00;;
3267;SDS011;1646;52.450;13.326;2023-03-01T01:36:28;22.50;;;10.57;;
3267;SDS011;1646;52.450;13.326;2023-03-01T01:41:28;28.50;;;10.87;;
3267;SDS011;1646;52.450;13.326;2023-03-01T01:46:28;21.20;;;9.37;;
3267;SDS011;1646;52.450;13.326;2023-03-01T01:51:29;18.40;;;10.10;;
3267;SDS011;1646;52.450;13.326;2023-03-01T01:56:35;22.53;;;9.50;;
3267;SDS011;1646;52.450;13.326;2023-03-01T02:01:36;20.50;;;9.50;;
3267;SDS011;1646;52.450;13.326;2023-03-01T02:06:37;23.50;;;10.23;;
3267;SDS011;1646;52.450;13.326;2023-03-01T02:11:38;21.13;;;10.93;;
3267;SDS011;1646;52.450;13.326;2023-03-01T02:16:39;22.50;;;10.93;;
3267;SDS011;1646;52.450;13.326;2023-03-01T02:21:38;20.40;;;9.87;;
3267;SDS011;1646;52.450;13.326;2023-03-01T02:26:48;28.13;;;11.80;;
3267;SDS011;1646;52.450;13.326;2023-03-01T02:31:52;25.00;;;10.63;;
3267;SDS011;1646;52.450;13.326;2023-03-01T02:36:56;25.43;;;11.03;;
3267;SDS011;1646;52.450;13.326;2023-03-01T02:41:57;24.33;;;10.97;;
3267;SDS011;1646;52.450;13.326;2023-03-01T02:46:58;28.17;;;10.40;;
3267;SDS011;1646;52.450;13.326;2023-03-01T02:52:04;24.40;;;11.97;;
3267;SDS011;1646;52.450;13.326;2023-03-01T02:57:15;25.07;;;11.10;;
3267;SDS011;1646;52.450;13.326;2023-03-01T03:02:23;30.93;;;10.83;;
3267;SDS011;1646;52.450;13.326;2023-03-01T03:07:52;27.60;;;12.23;;
3267;SDS011;1646;52.450;13.326;2023-03-01T03:12:52;20.13;;;11.43;;
3267;SDS011;1646;52.450;13.326;2023-03-01T03:17:53;22.80;;;12.27;;
3267;SDS011;1646;52.450;13.326;2023-03-01T03:22:53;25.57;;;11.77;;
3267;SDS011;1646;52.450;13.326;2023-03-01T03:27:52;25.07;;;11.67;;
3267;SDS011;1646;52.450;13.326;2023-03-01T03:32:54;26.60;;;11.97;;
3267;SDS011;1646;52.450;13.326;2023-03-01T03:37:54;23.67;;;11.10;;
3267;SDS011;1646;52.450;13.326;2023-03-01T03:43:03;22.90;;;11.33;;
3267;SDS011;1646;52.450;13.326;2023-03-01T03:48:04;30.50;;;12.00;;
3267;SDS011;1646;52.450;13.326;2023-03-01T03:53:05;26.40;;;11.73;;
3267;SDS011;1646;52.450;13.326;2023-03-01T03:58:06;26.77;;;12.10;;
3267;SDS011;1646;52.450;13.326;2023-03-01T04:03:07;26.30;;;10.80;;
3267;SDS011;1646;52.450;13.326;2023-03-01T04:08:06;23.47;;;12.13;;
3267;SDS011;1646;52.450;13.326;2023-03-01T04:13:06;27.80;;;12.07;;
3267;SDS011;1646;52.450;13.326;2023-03-01T04:18:10;21.77;;;11.30;;
3267;SDS011;1646;52.450;13.326;2023-03-01T04:23:11;23.73;;;11.73;;
3267;SDS011;1646;52.450;13.326;2023-03-01T04:28:12;24.60;;;11.47;;
3267;SDS011;1646;52.450;13.326;2023-03-01T04:33:12;23.30;;;11.23;;
3267;SDS011;1646;52.450;13.326;2023-03-01T04:38:10;27.43;;;11.90;;
3267;SDS011;1646;52.450;13.326;2023-03-01T04:43:09;24.60;;;12.10;;
3267;SDS011;1646;52.450;13.326;2023-03-01T04:48:08;27.43;;;11.17;;
3267;SDS011;1646;52.450;13.326;2023-03-01T04:53:08;26.67;;;12.50;;
3267;SDS011;1646;52.450;13.326;2023-03-01T04:58:06;28.93;;;12.50;;
3267;SDS011;1646;52.450;13.326;2023-03-01T05:03:04;22.50;;;11.03;;
3267;SDS011;1646;52.450;13.326;2023-03-01T05:08:03;27.57;;;12.57;;
3267;SDS011;1646;52.450;13.326;2023-03-01T05:13:04;27.83;;;11.87;;
3267;SDS011;1646;52.450;13.326;2023-03-01T05:18:03;26.00;;;11.87;;
3267;SDS011;1646;52.450;13.326;2023-03-01T05:23:03;26.67;;;12.13;;
3267;SDS011;1646;52.450;13.326;2023-03-01T05:28:02;28.73;;;12.67;;
3267;SDS011;1646;52.450;13.326;2023-03-01T05:33:02;29.60;;;13.20;;
3267;SDS011;1646;52.450;13.326;2023-03-01T05:38:01;25.30;;;12.70;;
3267;SDS011;1646;52.450;13.326;2023-03-01T05:42:59;22.50;;;12.53;;
3267;SDS011;1646;52.450;13.326;2023-03-01T05:47:59;23.63;;;12.63;;
3267;SDS011;1646;52.450;13.326;2023-03-01T05:52:59;25.27;;;12.30;;
3267;SDS011;1646;52.450;13.326;2023-03-01T05:58:01;26.70;;;11.73;;
3267;SDS011;1646;52.450;13.326;2023-03-01T06:03:02;26.73;;;13.30;;
3267;SDS011;1646;52.450;13.326;2023-03-01T06:08:01;28.30;;;11.73;;
3267;SDS011;1646;52.450;13.326;2023-03-01T06:12:59;24.93;;;11.63;;
3267;SDS011;1646;52.450;13.326;2023-03-01T06:17:58;22.93;;;12.37;;
3267;SDS011;1646;52.450;13.326;2023-03-01T06:22:57;29.93;;;12.47;;
3267;SDS011;1646;52.450;13.326;2023-03-01T06:27:56;24.37;;;12.10;;
3267;SDS011;1646;52.450;13.326;2023-03-01T06:32:54;25.70;;;12.87;;
3267;SDS011;1646;52.450;13.326;2023-03-01T06:38:00;27.17;;;13.17;;
3267;SDS011;1646;52.450;13.326;2023-03-01T06:42:59;28.13;;;14.60;;
3267;SDS011;1646;52.450;13.326;2023-03-01T06:48:01;24.73;;;12.37;;
3267;SDS011;1646;52.450;13.326;2023-03-01T06:53:02;32.23;;;14.30;;
3267;SDS011;1646;52.450;13.326;2023-03-01T06:58:01;28.00;;;13.50;;
3267;SDS011;1646;52.450;13.326;2023-03-01T07:03:00;28.07;;;13.37;;
3267;SDS011;1646;52.450;13.326;2023-03-01T07:07:59;38.77;;;14.97;;
3267;SDS011;1646;52.450;13.326;2023-03-01T07:12:59;30.77;;;13.80;;
3267;SDS011;1646;52.450;13.326;2023-03-01T07:17:57;27.20;;;13.90;;
3267;SDS011;1646;52.450;13.326;2023-03-01T07:22:55;27.83;;;14.37;;
3267;SDS011;1646;52.450;13.326;2023-03-01T07:27:54;24.53;;;13.73;;
3267;SDS011;1646;52.450;13.326;2023-03-01T07:32:54;29.90;;;13.90;;
3267;SDS011;1646;52.450;13.326;2023-03-01T07:37:53;33.07;;;13.57;;
3267;SDS011;1646;52.450;13.326;2023-03-01T07:42:54;26.40;;;14.43;;
3267;SDS011;1646;52.450;13.326;2023-03-01T07:47:54;27.00;;;13.70;;
3267;SDS011;1646;52.450;13.326;2023-03-01T07:52:53;30.97;;;15.90;;
3267;SDS011;1646;52.450;13.326;2023-03-01T07:57:51;27.77;;;16.87;;
3267;SDS011;1646;52.450;13.326;2023-03-01T08:02:50;35.57;;;16.43;;
3267;SDS011;1646;52.450;13.326;2023-03-01T08:07:50;27.40;;;14.30;;
3267;SDS011;1646;52.450;13.326;2023-03-01T08:12:50;25.73;;;14.50;;
3267;SDS011;1646;52.450;13.326;2023-03-01T08:17:49;27.67;;;14.10;;
3267;SDS011;1646;52.450;13.326;2023-03-01T08:22:47;28.97;;;13.27;;
3267;SDS011;1646;52.450;13.326;2023-03-01T08:27:47;30.80;;;14.93;;
3267;SDS011;1646;52.450;13.326;2023-03-01T08:32:45;26.63;;;11.20;;
3267;SDS011;1646;52.450;13.326;2023-03-01T08:37:43;24.33;;;11.83;;
3267;SDS011;1646;52.450;13.326;2023-03-01T08:42:43;15.03;;;9.13;;
3267;SDS011;1646;52.450;13.326;2023-03-01T08:47:42;16.10;;;8.43;;
3267;SDS011;1646;52.450;13.326;2023-03-01T08:52:41;13.47;;;7.20;;
3267;SDS011;1646;52.450;13.326;2023-03-01T08:57:39;10.63;;;6.00;;
3267;SDS011;1646;52.450;13.326;2023-03-01T09:02:39;14.47;;;7.20;;
3267;SDS011;1646;52.450;13.326;2023-03-01T09:07:37;13.10;;;6.83;;
3267;SDS011;1646;52.450;13.326;2023-03-01T09:12:36;10.00;;;6.53;;
3267;SDS011;1646;52.450;13.326;2023-03-01T09:17:34;14.87;;;7.60;;
3267;SDS011;1646;52.450;13.326;2023-03-01T09:22:34;14.63;;;7.40;;
3267;SDS011;1646;52.450;13.326;2023-03-01T09:27:32;12.93;;;6.90;;
3267;SDS011;1646;52.450;13.326;2023-03-01T09:32:30;7.83;;;5.57;;
3267;SDS011;1646;52.450;13.326;2023-03-01T09:37:29;8.77;;;5.43;;
3267;SDS011;1646;52.450;13.326;2023-03-01T09:42:29;9.33;;;5.93;;
3267;SDS011;1646;52.450;13.326;2023-03-01T09:47:32;8.70;;;6.07;;
3267;SDS011;1646;52.450;13.326;2023-03-01T09:52:36;9.80;;;5.93;;
3267;SDS011;1646;52.450;13.326;2023-03-01T09:57:41;7.50;;;4.30;;
3267;SDS011;1646;52.450;13.326;2023-03-01T10:02:46;9.53;;;4.80;;
3267;SDS011;1646;52.450;13.326;2023-03-01T10:07:51;12.13;;;5.00;;
3267;SDS011;1646;52.450;13.326;2023-03-01T10:12:59;14.00;;;5.53;;
3267;SDS011;1646;52.450;13.326;2023-03-01T10:18:00;7.20;;;4.40;;
3267;SDS011;1646;52.450;13.326;2023-03-01T10:23:04;8.27;;;5.03;;
3267;SDS011;1646;52.450;13.326;2023-03-01T10:28:05;10.87;;;4.20;;
3267;SDS011;1646;52.450;13.326;2023-03-01T10:33:13;8.80;;;4.27;;
3267;SDS011;1646;52.450;13.326;2023-03-01T10:38:15;5.17;;;4.17;;
3267;SDS011;1646;52.450;13.326;2023-03-01T10:43:17;10.60;;;4.63;;
3267;SDS011;1646;52.450;13.326;2023-03-01T10:48:16;13.73;;;4.67;;
3267;SDS011;1646;52.450;13.326;2023-03-01T10:53:20;7.20;;;4.97;;
3267;SDS011;1646;52.450;13.326;2023-03-01T10:58:24;6.30;;;4.40;;
3267;SDS011;1646;52.450;13.326;2023-03-01T11:03:23;9.20;;;4.67;;
3267;SDS011;1646;52.450;13.326;2023-03-01T11:08:30;5.47;;;3.90;;
3267;SDS011;1646;52.450;13.326;2023-03-01T11:13:34;8.03;;;5.13;;
3267;SDS011;1646;52.450;13.326;2023-03-01T11:18:34;9.90;;;5.33;;
3267;SDS011;1646;52.450;13.326;2023-03-01T11:23:43;9.60;;;5.30;;
3267;SDS011;1646;52.450;13.326;2023-03-01T11:28:45;15.63;;;6.17;;
3267;SDS011;1646;52.450;13.326;2023-03-01T11:33:48;8.97;;;5.13;;
3267;SDS011;1646;52.450;13.326;2023-03-01T11:38:52;8.93;;;5.83;;
3267;SDS011;1646;52.450;13.326;2023-03-01T11:43:54;9.70;;;5.13;;
3267;SDS011;1646;52.450;13.326;2023-03-01T11:48:59;9.33;;;5.97;;
3267;SDS011;1646;52.450;13.326;2023-03-01T11:54:13;11.40;;;6.13;;
3267;SDS011;1646;52.450;13.326;2023-03-01T11:59:41;9.43;;;5.60;;
3267;SDS011;1646;52.450;13.326;2023-03-01T12:05:03;15.43;;;6.20;;
3267;SDS011;1646;52.450;13.326;2023-03-01T12:10:23;9.43;;;6.13;;
3267;SDS011;1646;52.450;13.326;2023-03-01T12:15:32;7.50;;;5.03;;
3267;SDS011;1646;52.450;13.326;2023-03-01T12:20:41;10.17;;;5.30;;
3267;SDS011;1646;52.450;13.326;2023-03-01T12:25:49;11.90;;;5.40;;
3267;SDS011;1646;52.450;13.326;2023-03-01T12:31:05;7.80;;;4.97;;
3267;SDS011;1646;52.450;13.326;2023-03-01T12:36:27;8.70;;;4.30;;
3267;SDS011;1646;52.450;13.326;2023-03-01T12:41:43;5.70;;;3.17;;
3267;SDS011;1646;52.450;13.326;2023-03-01T12:46:54;5.30;;;2.93;;
3267;SDS011;1646;52.450;13.326;2023-03-01T12:52:08;4.50;;;3.10;;
3267;SDS011;1646;52.450;13.326;2023-03-01T12:57:11;8.75;;;3.70;;
3267;SDS011;1646;52.450;13.326;2023-03-01T13:02:18;5.20;;;2.97;;
3267;SDS011;1646;52.450;13.326;2023-03-01T13:07:25;5.50;;;3.40;;
3267;SDS011;1646;52.450;13.326;2023-03-01T13:17:51;6.57;;;3.40;;
3267;SDS011;1646;52.450;13.326;2023-03-01T13:23:00;6.13;;;3.50;;
3267;SDS011;1646;52.450;13.326;2023-03-01T13:33:43;7.90;;;2.80;;
3267;SDS011;1646;52.450;13.326;2023-03-01T13:38:46;6.77;;;3.57;;
3267;SDS011;1646;52.450;13.326;2023-03-01T13:43:46;5.30;;;3.53;;
3267;SDS011;1646;52.450;13.326;2023-03-01T13:48:47;10.43;;;3.87;;
3267;SDS011;1646;52.450;13.326;2023-03-01T13:53:49;7.00;;;3.37;;
3267;SDS011;1646;52.450;13.326;2023-03-01T13:58:49;7.10;;;3.60;;
3267;SDS011;1646;52.450;13.326;2023-03-01T14:03:49;6.23;;;2.70;;
3267;SDS011;1646;52.450;13.326;2023-03-01T14:08:49;7.73;;;3.53;;
3267;SDS011;1646;52.450;13.326;2023-03-01T14:19:25;3.80;;;2.83;;
3267;SDS011;1646;52.450;13.326;2023-03-01T14:24:29;4.67;;;2.17;;
3267;SDS011;1646;52.450;13.326;2023-03-01T14:29:34;4.80;;;2.87;;
3267;SDS011;1646;52.450;13.326;2023-03-01T14:34:34;3.40;;;2.63;;
3267;SDS011;1646;52.450;13.326;2023-03-01T14:39:32;3.93;;;2.57;;
3267;SDS011;1646;52.450;13.326;2023-03-01T14:44:30;6.17;;;2.67;;
3267;SDS011;1646;52.450;13.326;2023-03-01T14:49:30;4.70;;;3.40;;
3267;SDS011;1646;52.450;13.326;2023-03-01T14:54:32;6.07;;;2.70;;
3267;SDS011;1646;52.450;13.326;2023-03-01T14:59:37;5.70;;;3.00;;
3267;SDS011;1646;52.450;13.326;2023-03-01T15:04:35;10.70;;;3.20;;
3267;SDS011;1646;52.450;13.326;2023-03-01T15:09:35;4.57;;;2.40;;
3267;SDS011;1646;52.450;13.326;2023-03-01T15:14:39;4.00;;;2.53;;
3267;SDS011;1646;52.450;13.326;2023-03-01T15:19:47;5.67;;;3.40;;
3267;SDS011;1646;52.450;13.326;2023-03-01T15:24:47;7.33;;;3.30;;
3267;SDS011;1646;52.450;13.326;2023-03-01T15:29:48;4.50;;;2.80;;
3267;SDS011;1646;52.450;13.326;2023-03-01T15:34:47;5.90;;;3.03;;
3267;SDS011;1646;52.450;13.326;2023-03-01T15:39:53;8.20;;;2.93;;
3267;SDS011;1646;52.450;13.326;2023-03-01T15:45:06;7.53;;;3.17;;
3267;SDS011;1646;52.450;13.326;2023-03-01T15:50:11;5.70;;;2.87;;
3267;SDS011;1646;52.450;13.326;2023-03-01T15:55:18;7.13;;;2.83;;
3267;SDS011;1646;52.450;13.326;2023-03-01T16:00:18;3.80;;;2.53;;
3267;SDS011;1646;52.450;13.326;2023-03-01T16:05:19;5.53;;;3.10;;
3267;SDS011;1646;52.450;13.326;2023-03-01T16:10:21;3.13;;;2.33;;
3267;SDS011;1646;52.450;13.326;2023-03-01T16:15:20;3.03;;;2.53;;
3267;SDS011;1646;52.450;13.326;2023-03-01T16:20:20;12.23;;;2.93;;
3267;SDS011;1646;52.450;13.326;2023-03-01T16:25:26;3.40;;;2.20;;
3267;SDS011;1646;52.450;13.326;2023-03-01T16:30:26;4.10;;;2.80;;
3267;SDS011;1646;52.450;13.326;2023-03-01T16:35:50;6.13;;;2.30;;
3267;SDS011;1646;52.450;13.326;2023-03-01T16:40:51;4.77;;;2.73;;
3267;SDS011;1646;52.450;13.326;2023-03-01T16:45:49;7.67;;;3.03;;
3267;SDS011;1646;52.450;13.326;2023-03-01T16:50:55;3.87;;;2.60;;
3267;SDS011;1646;52.450;13.326;2023-03-01T16:55:56;7.40;;;2.90;;
3267;SDS011;1646;52.450;13.326;2023-03-01T17:00:56;8.63;;;3.53;;
3267;SDS011;1646;52.450;13.326;2023-03-01T17:05:54;5.90;;;3.60;;
3267;SDS011;1646;52.450;13.326;2023-03-01T17:10:53;10.27;;;3.80;;
3267;SDS011;1646;52.450;13.326;2023-03-01T17:15:53;4.93;;;3.20;;
3267;SDS011;1646;52.450;13.326;2023-03-01T17:20:51;8.03;;;3.30;;
3267;SDS011;1646;52.450;13.326;2023-03-01T17:25:50;8.70;;;3.43;;
3267;SDS011;1646;52.450;13.326;2023-03-01T17:30:52;6.10;;;3.23;;
3267;SDS011;1646;52.450;13.326;2023-03-01T17:35:51;5.73;;;2.70;;
3267;SDS011;1646;52.450;13.326;2023-03-01T17:40:50;4.93;;;2.30;;
3267;SDS011;1646;52.450;13.326;2023-03-01T17:45:49;6.80;;;3.40;;
3267;SDS011;1646;52.450;13.326;2023-03-01T17:50:49;6.37;;;3.53;;
3267;SDS011;1646;52.450;13.326;2023-03-01T17:55:48;7.47;;;2.90;;
3267;SDS011;1646;52.450;13.326;2023-03-01T18:00:49;8.00;;;3.60;;
3267;SDS011;1646;52.450;13.326;2023-03-01T18:05:49;13.93;;;3.80;;
3267;SDS011;1646;52.450;13.326;2023-03-01T18:10:48;6.90;;;3.30;;
3267;SDS011;1646;52.450;13.326;2023-03-01T18:15:54;6.57;;;3.17;;
3267;SDS011;1646;52.450;13.326;2023-03-01T18:20:58;6.80;;;3.33;;
3267;SDS011;1646;52.450;13.326;2023-03-01T18:25:57;7.10;;;3.13;;
3267;SDS011;1646;52.450;13.326;2023-03-01T18:30:57;9.40;;;3.77;;
3267;SDS011;1646;52.450;13.326;2023-03-01T18:35:55;8.60;;;3.90;;
3267;SDS011;1646;52.450;13.326;2023-03-01T18:40:55;8.33;;;4.10;;
3267;SDS011;1646;52.450;13.326;2023-03-01T18:45:54;13.63;;;4.70;;
3267;SDS011;1646;52.450;13.326;2023-03-01T18:50:55;19.47;;;4.73;;
3267;SDS011;1646;52.450;13.326;2023-03-01T18:55:57;15.13;;;4.67;;
3267;SDS011;1646;52.450;13.326;2023-03-01T19:00:57;8.13;;;4.30;;
3267;SDS011;1646;52.450;13.326;2023-03-01T19:05:57;12.13;;;5.23;;
3267;SDS011;1646;52.450;13.326;2023-03-01T19:10:57;18.47;;;7.50;;
3267;SDS011;1646;52.450;13.326;2023-03-01T19:16:02;15.50;;;7.23;;
3267;SDS011;1646;52.450;13.326;2023-03-01T19:21:03;18.50;;;7.90;;
3267;SDS011;1646;52.450;13.326;2023-03-01T19:26:04;18.67;;;7.10;;
3267;SDS011;1646;52.450;13.326;2023-03-01T19:31:06;28.87;;;9.20;;
3267;SDS011;1646;52.450;13.326;2023-03-01T19:36:07;20.43;;;10.03;;
3267;SDS011;1646;52.450;13.326;2023-03-01T19:41:08;33.30;;;14.77;;
3267;SDS011;1646;52.450;13.326;2023-03-01T19:46:10;26.73;;;12.00;;
3267;SDS011;1646;52.450;13.326;2023-03-01T19:51:10;29.73;;;12.53;;
3267;SDS011;1646;52.450;13.326;2023-03-01T19:56:10;25.87;;;10.83;;
3267;SDS011;1646;52.450;13.326;2023-03-01T20:01:13;17.80;;;9.47;;
3267;SDS011;1646;52.450;13.326;2023-03-01T20:06:13;30.53;;;11.47;;
3267;SDS011;1646;52.450;13.326;2023-03-01T20:11:16;28.53;;;11.90;;
3267;SDS011;1646;52.450;13.326;2023-03-01T20:16:15;26.47;;;11.33;;
3267;SDS011;1646;52.450;13.326;2023-03-01T20:21:15;23.33;;;10.77;;
3267;SDS011;1646;52.450;13.326;2023-03-01T20:26:21;28.83;;;10.43;;
3267;SDS011;1646;52.450;13.326;2023-03-01T20:31:21;25.67;;;10.60;;
3267;SDS011;1646;52.450;13.326;2023-03-01T20:36:26;27.90;;;11.60;;
3267;SDS011;1646;52.450;13.326;2023-03-01T20:41:26;22.40;;;10.90;;
3267;SDS011;1646;52.450;13.326;2023-03-01T20:46:24;22.23;;;10.03;;
3267;SDS011;1646;52.450;13.326;2023-03-01T20:51:28;24.57;;;10.10;;
3267;SDS011;1646;52.450;13.326;2023-03-01T20:56:27;26.10;;;11.93;;
3267;SDS011;1646;52.450;13.326;2023-03-01T21:01:32;25.83;;;10.03;;
3267;SDS011;1646;52.450;13.326;2023-03-01T21:06:31;25.10;;;10.83;;
3267;SDS011;1646;52.450;13.326;2023-03-01T21:11:31;22.53;;;10.77;;
3267;SDS011;1646;52.450;13.326;2023-03-01T21:16:29;22.90;;;10.50;;
3267;SDS011;1646;52.450;13.326;2023-03-01T21:21:28;27.70;;;10.93;;
3267;SDS011;1646;52.450;13.326;2023-03-01T21:26:27;35.13;;;12.37;;
3267;SDS011;1646;52.450;13.326;2023-03-01T21:31:28;27.67;;;12.20;;
3267;SDS011;1646;52.450;13.326;2023-03-01T21:36:29;28.10;;;12.23;;
3267;SDS011;1646;52.450;13.326;2023-03-01T21:41:29;28.87;;;12.50;;
3267;SDS011;1646;52.450;13.326;2023-03-01T21:46:33;24.27;;;12.30;;
3267;SDS011;1646;52.450;13.326;2023-03-01T21:51:33;29.77;;;12.60;;
3267;SDS011;1646;52.450;13.326;2023-03-01T21:56:32;28.57;;;13.83;;
3267;SDS011;1646;52.450;13.326;2023-03-01T22:01:36;32.73;;;13.67;;
3267;SDS011;1646;52.450;13.326;2023-03-01T22:06:34;29.00;;;13.13;;
3267;SDS011;1646;52.450;13.326;2023-03-01T22:11:37;28.60;;;12.70;;
3267;SDS011;1646;52.450;13.326;2023-03-01T22:16:39;31.40;;;14.33;;
3267;SDS011;1646;52.450;13.326;2023-03-01T22:21:40;28.13;;;13.20;;
3267;SDS011;1646;52.450;13.326;2023-03-01T22:26:40;34.07;;;13.77;;
3267;SDS011;1646;52.450;13.326;2023-03-01T22:31:41;29.90;;;14.00;;
3267;SDS011;1646;52.450;13.326;2023-03-01T22:36:40;31.83;;;14.33;;
3267;SDS011;1646;52.450;13.326;2023-03-01T22:41:39;31.47;;;13.87;;
3267;SDS011;1646;52.450;13.326;2023-03-01T22:46:39;29.83;;;13.93;;
3267;SDS011;1646;52.450;13.326;2023-03-01T22:51:40;30.50;;;15.00;;
3267;SDS011;1646;52.450;13.326;2023-03-01T22:56:39;34.80;;;14.20;;
3267;SDS011;1646;52.450;13.326;2023-03-01T23:01:39;30.93;;;14.10;;
3267;SDS011;1646;52.450;13.326;2023-03-01T23:06:43;27.63;;;13.60;;
3267;SDS011;1646;52.450;13.326;2023-03-01T23:11:47;30.87;;;13.40;;
3267;SDS011;1646;52.450;13.326;2023-03-01T23:16:47;32.60;;;13.77;;
3267;SDS011;1646;52.450;13.326;2023-03-01T23:21:46;30.40;;;12.37;;
3267;SDS011;1646;52.450;13.326;2023-03-01T23:26:46;31.07;;;13.57;;
3267;SDS011;1646;52.450;13.326;2023-03-01T23:31:50;29.70;;;13.37;;
3267;SDS011;1646;52.450;13.326;2023-03-01T23:36:50;32.50;;;12.97;;
3267;SDS011;1646;52.450;13.326;2023-03-01T23:41:48;34.20;;;13.40;;
3267;SDS011;1646;52.450;13.326;2023-03-01T23:46:48;27.97;;;12.43;;
3267;SDS011;1646;52.450;13.326;2023-03-01T23:51:48;34.60;;;14.03;;
3267;SDS011;1646;52.450;13.326;2023-03-01T23:56:46;25.30;;;12.47;;
